createdAt,value
2023-03-06T00:04:34.510Z,88.87
2023-03-06T00:09:32.637Z,89.54
2023-03-06T00:14:33.923Z,89.95
2023-03-06T00:19:36.050Z,89.85
2023-03-06T00:24:35.234Z,90.26
2023-03-06T00:29:36.391Z,89.95
2023-03-06T00:34:38.523Z,89.95
2023-03-06T00:39:37.649Z,90.52
2023-03-06T00:44:38.787Z,90.00
2023-03-06T00:49:39.921Z,89.37
2023-03-06T00:54:41.100Z,89.43
2023-03-06T00:59:42.262Z,89.64
2023-03-06T01:04:43.394Z,89.58
2023-03-06T01:09:44.549Z,89.78
2023-03-06T01:14:46.675Z,89.43
2023-03-06T01:19:46.815Z,90.20
2023-03-06T01:24:45.966Z,91.08
2023-03-06T01:29:47.092Z,91.29
2023-03-06T01:34:49.224Z,91.54
2023-03-06T01:39:49.342Z,91.02
2023-03-06T01:44:48.469Z,90.91
2023-03-06T01:49:49.724Z,91.06
2023-03-06T01:54:50.909Z,91.27
2023-03-06T01:59:52.069Z,91.69
2023-03-06T02:04:53.299Z,91.83
2023-03-06T02:09:54.416Z,92.25
2023-03-06T02:14:55.575Z,92.19
2023-03-06T02:19:56.666Z,92.19
2023-03-06T02:26:18.147Z,92.66
2023-03-06T02:29:59.303Z,91.89
2023-03-06T02:35:00.456Z,89.72
2023-03-06T02:40:01.587Z,87.49
2023-03-06T02:45:02.678Z,87.60
2023-03-06T02:50:04.760Z,87.60
2023-03-06T02:55:03.928Z,87.91
2023-03-06T03:00:05.090Z,88.12
2023-03-06T03:05:06.224Z,87.04
2023-03-06T03:10:07.399Z,86.27
2023-03-06T03:15:08.556Z,86.06
2023-03-06T03:20:09.709Z,85.68
2023-03-06T03:25:10.926Z,89.28
2023-03-06T03:30:13.084Z,90.68
2023-03-06T03:35:12.272Z,90.37
2023-03-06T03:40:13.440Z,91.35
2023-03-06T03:45:14.629Z,91.98
2023-03-06T03:50:15.866Z,93.13
2023-03-06T03:55:17.024Z,92.29
2023-03-06T04:00:19.104Z,92.85
2023-03-06T04:05:18.583Z,93.27
2023-03-06T04:10:17.715Z,92.54
2023-03-06T04:15:18.833Z,92.75
2023-03-06T04:20:20.973Z,92.85
2023-03-06T04:25:21.165Z,92.69
2023-03-06T04:30:20.359Z,92.90
2023-03-06T04:35:21.558Z,93.63
2023-03-06T04:40:22.662Z,94.26
2023-03-06T04:45:23.806Z,93.90
2023-03-06T04:50:24.933Z,93.48
2023-03-06T04:55:26.081Z,93.48
2023-03-06T05:00:31.060Z,94.05
2023-03-06T05:05:28.201Z,93.84
2023-03-06T05:10:29.340Z,94.57
2023-03-06T05:15:30.479Z,93.74
2023-03-06T05:20:31.625Z,94.68
2023-03-06T05:25:32.758Z,94.05
2023-03-06T05:30:34.952Z,95.09
2023-03-06T05:35:34.160Z,95.31
2023-03-06T05:40:35.352Z,95.72
2023-03-06T05:45:36.554Z,95.93
2023-03-06T05:50:37.702Z,95.20
2023-03-06T05:55:38.826Z,96.50
2023-03-06T06:00:40.924Z,96.92
2023-03-06T06:05:41.068Z,95.83
2023-03-06T06:10:40.319Z,95.66
2023-03-06T06:15:41.466Z,95.72
2023-03-06T06:20:42.740Z,95.51
2023-03-06T06:25:44.886Z,94.64
2023-03-06T06:30:44.041Z,93.86
2023-03-06T06:35:45.351Z,94.21
2023-03-06T06:40:58.408Z,95.05
2023-03-06T06:45:48.953Z,95.01
2023-03-06T06:50:47.652Z,93.50
2023-03-06T06:55:46.782Z,93.88
2023-03-06T07:00:48.017Z,93.15
2023-03-06T07:05:49.203Z,93.10
2023-03-06T07:10:50.455Z,92.22
2023-03-06T07:15:51.635Z,92.40
2023-03-06T07:20:52.789Z,91.83
2023-03-06T07:25:53.960Z,90.68
2023-03-06T07:30:57.145Z,90.54
2023-03-06T07:35:56.287Z,90.12
2023-03-06T07:40:57.466Z,90.44
2023-03-06T07:45:58.576Z,90.85
2023-03-06T07:50:59.733Z,90.44
2023-03-06T07:56:02.147Z,88.89
2023-03-06T08:01:03.268Z,90.29
2023-03-06T08:06:01.493Z,89.98
2023-03-06T08:11:02.641Z,89.31
2023-03-06T08:16:04.879Z,87.66
2023-03-06T08:21:05.004Z,88.54
2023-03-06T08:26:04.156Z,87.84
2023-03-06T08:31:05.350Z,85.96
2023-03-06T08:36:06.479Z,88.54
2023-03-06T08:41:07.633Z,89.79
2023-03-06T08:46:08.773Z,88.85
2023-03-06T08:51:09.914Z,87.56
2023-03-06T08:56:11.019Z,87.48
2023-03-06T09:01:12.153Z,87.94
2023-03-06T09:06:13.293Z,87.48
2023-03-06T09:11:14.426Z,87.17
2023-03-06T09:16:15.605Z,84.89
2023-03-06T09:21:18.061Z,84.60
2023-03-06T09:26:18.195Z,82.35
2023-03-06T09:31:19.349Z,82.84
2023-03-06T09:36:18.590Z,82.73
2023-03-06T09:41:20.718Z,82.28
2023-03-06T09:46:20.909Z,81.04
2023-03-06T09:51:20.064Z,81.90
2023-03-06T09:56:21.277Z,81.90
2023-03-06T10:01:24.384Z,81.14
2023-03-06T10:06:23.516Z,81.04
2023-03-06T10:11:24.661Z,79.37
2023-03-06T10:16:26.794Z,77.56
2023-03-06T10:21:25.943Z,74.81
2023-03-06T10:26:27.173Z,72.60
2023-03-06T10:31:29.462Z,72.81
2023-03-06T10:36:29.664Z,73.15
2023-03-06T10:41:28.764Z,73.64
2023-03-06T10:46:32.098Z,70.50
2023-03-06T10:51:31.249Z,69.40
2023-03-06T10:56:32.369Z,66.07
2023-03-06T11:01:34.538Z,67.34
2023-03-06T11:06:33.680Z,66.93
2023-03-06T11:11:38.039Z,66.89
2023-03-06T11:16:36.371Z,66.79
2023-03-06T11:21:36.533Z,66.61
2023-03-06T11:26:35.703Z,66.20
2023-03-06T11:31:37.856Z,66.38
2023-03-06T11:36:37.008Z,66.20
2023-03-06T11:41:38.108Z,66.20
2023-03-06T11:46:40.309Z,65.11
2023-03-06T11:51:39.427Z,65.42
2023-03-06T11:56:40.542Z,66.04
2023-03-06T12:01:41.729Z,66.07
2023-03-06T12:06:42.905Z,65.18
2023-03-06T12:11:44.021Z,64.36
2023-03-06T12:16:45.158Z,65.14
2023-03-06T12:21:48.293Z,65.62
2023-03-06T12:26:48.420Z,65.08
2023-03-06T12:31:49.671Z,65.28
2023-03-06T12:36:49.828Z,64.80
2023-03-06T12:41:48.963Z,66.08
2023-03-06T12:46:50.326Z,65.08
2023-03-06T12:51:51.460Z,65.12
2023-03-06T12:56:52.551Z,64.02
2023-03-06T13:01:54.759Z,64.15
2023-03-06T13:06:53.877Z,65.52
2023-03-06T13:11:55.003Z,64.90
2023-03-06T13:16:56.208Z,64.59
2023-03-06T13:21:57.352Z,64.28
2023-03-06T13:26:58.502Z,64.59
2023-03-06T13:31:59.636Z,64.39
2023-03-06T13:37:00.742Z,64.98
2023-03-06T13:42:01.855Z,64.07
2023-03-06T13:47:02.990Z,63.74
2023-03-06T13:52:05.158Z,64.18
2023-03-06T13:57:04.337Z,63.53
2023-03-06T14:02:06.519Z,64.36
2023-03-06T14:07:06.602Z,63.68
2023-03-06T14:12:05.772Z,63.71
2023-03-06T14:17:07.939Z,62.88
2023-03-06T14:22:08.333Z,62.88
2023-03-06T14:27:07.502Z,63.19
2023-03-06T14:32:09.627Z,62.47
2023-03-06T14:37:09.824Z,62.34
2023-03-06T14:42:08.963Z,62.03
2023-03-06T14:47:10.072Z,62.37
2023-03-06T14:52:12.207Z,62.13
2023-03-06T14:57:12.377Z,63.09
2023-03-06T15:02:11.512Z,62.81
2023-03-06T15:07:13.674Z,62.44
2023-03-06T15:12:13.794Z,62.85
2023-03-06T15:17:12.912Z,61.90
2023-03-06T15:22:15.159Z,63.40
2023-03-06T15:27:14.249Z,64.12
2023-03-06T15:32:15.412Z,64.18
2023-03-06T15:37:16.532Z,65.52
2023-03-06T15:42:18.725Z,66.27
2023-03-06T15:47:17.846Z,66.82
2023-03-06T15:52:19.950Z,66.72
2023-03-06T15:57:19.093Z,68.06
2023-03-06T16:02:20.205Z,68.30
2023-03-06T16:07:21.495Z,68.82
2023-03-06T16:12:22.948Z,67.47
2023-03-06T16:17:22.160Z,67.78
2023-03-06T16:22:23.332Z,67.61
2023-03-06T16:27:23.493Z,68.23
2023-03-06T16:32:25.658Z,68.33
2023-03-06T16:37:25.326Z,68.26
2023-03-06T16:42:25.691Z,68.54
2023-03-06T16:47:25.933Z,68.12
2023-03-06T16:52:25.632Z,68.98
2023-03-06T16:57:25.998Z,68.57
2023-03-06T17:02:26.140Z,68.57
2023-03-06T17:07:26.456Z,68.98
2023-03-06T17:12:25.892Z,69.22
2023-03-06T17:17:24.335Z,70.36
2023-03-06T17:22:27.768Z,69.74
2023-03-06T17:27:27.875Z,70.47
2023-03-06T17:32:29.385Z,70.98
2023-03-06T17:37:26.997Z,71.50
2023-03-06T17:42:26.700Z,69.46
2023-03-06T17:47:27.848Z,69.64
2023-03-06T17:52:29.170Z,68.80
2023-03-06T17:57:30.646Z,67.46
2023-03-06T18:02:29.106Z,68.19
2023-03-06T18:07:30.652Z,69.32
2023-03-06T18:12:30.133Z,68.67
2023-03-06T18:17:32.341Z,67.98
2023-03-06T18:22:32.779Z,67.74
2023-03-06T18:27:32.020Z,67.12
2023-03-06T18:32:33.466Z,63.60
2023-03-06T18:37:34.937Z,64.43
2023-03-06T18:42:34.444Z,65.95
2023-03-06T18:47:33.698Z,67.64
2023-03-06T18:52:34.841Z,61.12
2023-03-06T18:57:37.290Z,62.77
2023-03-06T19:02:36.745Z,62.16
2023-03-06T19:07:38.238Z,62.60
2023-03-06T19:12:37.836Z,62.37
2023-03-06T19:17:37.368Z,63.57
2023-03-06T19:22:37.528Z,61.05
2023-03-06T19:27:37.003Z,60.32
2023-03-06T19:32:37.513Z,64.95
2023-03-06T19:37:37.026Z,65.36
2023-03-06T19:42:36.587Z,64.56
2023-03-06T19:47:36.749Z,63.22
2023-03-06T19:52:37.217Z,67.25
2023-03-06T19:57:37.014Z,67.05
2023-03-06T20:02:38.681Z,61.67
2023-03-06T20:07:38.189Z,65.67
2023-03-06T20:12:37.789Z,69.12
2023-03-06T20:17:38.245Z,69.22
2023-03-06T20:22:37.695Z,68.40
2023-03-06T20:27:40.036Z,67.46
2023-03-06T20:32:43.040Z,64.77
2023-03-06T20:37:39.505Z,63.64
2023-03-06T20:42:39.083Z,66.74
2023-03-06T20:47:38.577Z,67.05
2023-03-06T20:52:38.120Z,67.25
2023-03-06T20:57:38.368Z,68.29
2023-03-06T21:02:37.685Z,68.19
2023-03-06T21:07:39.898Z,63.32
2023-03-06T21:12:39.357Z,63.22
2023-03-06T21:17:38.609Z,63.32
2023-03-06T21:22:40.738Z,61.36
2023-03-06T21:27:39.925Z,62.18
2023-03-06T21:32:41.149Z,61.22
2023-03-06T21:37:42.434Z,62.91
2023-03-06T21:42:44.578Z,65.08
2023-03-06T21:47:47.615Z,62.39
2023-03-06T21:52:44.796Z,63.29
2023-03-06T21:57:47.008Z,66.09
2023-03-06T22:02:47.250Z,63.64
2023-03-06T22:07:46.416Z,63.01
2023-03-06T22:12:47.587Z,63.32
2023-03-06T22:17:49.712Z,65.50
2023-03-06T22:22:48.951Z,65.91
2023-03-06T22:27:50.053Z,66.12
2023-03-06T22:32:52.263Z,67.49
2023-03-06T22:37:52.433Z,67.39
2023-03-06T22:42:51.590Z,69.04
2023-03-06T22:47:57.106Z,71.01
2023-03-06T22:52:51.754Z,72.29
2023-03-06T22:57:52.929Z,70.94
2023-03-06T23:02:54.128Z,73.49
2023-03-06T23:07:55.295Z,73.49
2023-03-06T23:12:56.433Z,74.26
2023-03-06T23:17:57.649Z,73.32
2023-03-06T23:22:59.817Z,74.15
2023-03-06T23:27:58.957Z,72.15
2023-03-06T23:33:00.144Z,73.43
2023-03-06T23:38:02.233Z,73.57
2023-03-06T23:43:01.427Z,74.11
2023-03-06T23:48:02.600Z,74.95
2023-03-06T23:53:04.745Z,74.11
2023-03-06T23:58:03.902Z,73.18
